Ilyas Araz — TCAS9 — position and weather

sailwx.info

Track history (hours):
 
Tides and Currents Weather Stations Pressure Air Temp Water Temp Dewpoint Dewpoint Depression Visibility Wind Speed Wind Dir Waves Ship Positions

Ilyas Araz

Last reported at 2015-Feb-26 16:24 UTC. Time now 2015-Mar-05 04:07 UTC.
Position N 40°51' E 029°17'.

Length 64 m; draft 5.4 m.

Type: Cargo ship. MMSI: 271002108.

Date/timePositionNaut miles runAvg speedWind from/ knotsBaromVisibWave heightAir tempDewpointWater temp
2015-Feb-26 16:24N 40°51' E 029°17'0 0.0
2015-Feb-26 15:18N 40°51' E 029°17'0 0.0
2015-Feb-26 14:30N 40°51' E 029°17'0 0.0
2015-Feb-26 13:30N 40°51' E 029°17'0 0.0
2015-Feb-26 12:30N 40°51' E 029°17'0 0.0
2015-Feb-26 11:30N 40°51' E 029°17'0 0.0
2015-Feb-26 10:30N 40°51' E 029°17'0 0.0
2015-Feb-26 09:30N 40°51' E 029°17'0 0.0
2015-Feb-26 08:24N 40°51' E 029°17'0 0.0
2015-Feb-26 07:30N 40°51' E 029°17'0 0.0
2015-Feb-26 06:30N 40°51' E 029°17'0 0.0
2015-Feb-26 05:24N 40°51' E 029°17'0 0.0
2015-Feb-26 04:30N 40°51' E 029°17'0 0.0
2015-Feb-26 03:30N 40°51' E 029°17'0 0.0
2015-Feb-26 02:24N 40°51' E 029°17'0 0.0
2015-Feb-26 01:30N 40°51' E 029°17'0 0.0
2015-Feb-26 00:30N 40°51' E 029°17'0 0.0
2015-Feb-25 23:24N 40°51' E 029°17'0 0.0
2015-Feb-25 22:31N 40°51' E 029°17'0 0.0
2015-Feb-25 21:30N 40°51' E 029°17'0 0.0
2015-Feb-25 20:31N 40°51' E 029°17'0 0.0
2015-Feb-25 19:31N 40°51' E 029°17'0 0.0
2015-Feb-25 18:31N 40°51' E 029°17'0 0.0
2015-Feb-25 17:31N 40°51' E 029°17'0 0.0
2015-Feb-25 16:25N 40°51' E 029°17'0 0.0
2015-Feb-25 15:25N 40°51' E 029°17'0 0.0
2015-Feb-25 14:31N 40°51' E 029°17'0 0.0
2015-Feb-25 13:31N 40°51' E 029°17'0 0.0
2015-Feb-25 12:25N 40°51' E 029°17'0 0.0
2015-Feb-25 11:25N 40°51' E 029°17'0 0.0
2015-Feb-25 10:31N 40°51' E 029°17'0 0.0
2015-Feb-25 09:25N 40°51' E 029°17'0 0.0
2015-Feb-25 08:31N 40°51' E 029°17'0 0.0
2015-Feb-25 07:31N 40°51' E 029°17'0 0.0
2015-Feb-25 06:31N 40°51' E 029°17'0 0.0
2015-Feb-25 05:25N 40°51' E 029°17'0 0.0
2015-Feb-25 04:31N 40°51' E 029°17'0 0.0
2015-Feb-25 03:31N 40°51' E 029°17'0 0.0
2015-Feb-25 02:25N 40°51' E 029°17'0 0.0
2015-Feb-25 01:31N 40°51' E 029°17'0 0.0
2015-Feb-25 00:25N 40°51' E 029°17'0 0.0
2015-Feb-24 23:31N 40°51' E 029°17'0 0.0
2015-Feb-24 22:31N 40°51' E 029°17'0 0.0
2015-Feb-24 21:25N 40°51' E 029°17'0 0.0
2015-Feb-24 20:31N 40°51' E 029°17'0 0.0
2015-Feb-24 19:25N 40°51' E 029°17'0 0.0
2015-Feb-24 18:31N 40°51' E 029°17'0 0.0
2015-Feb-24 17:25N 40°51' E 029°17'0 0.0
2015-Feb-24 16:31N 40°51' E 029°17'0 0.0
2015-Feb-24 15:19N 40°51' E 029°17'0 0.0
2015-Feb-24 14:31N 40°51' E 029°17'0 0.0
2015-Feb-24 13:25N 40°51' E 029°17'0 0.2
2015-Feb-24 12:32N 40°51' E 029°17'2 1.7
2015-Feb-24 11:27N 40°50' E 029°15'0 0.0
2015-Feb-24 10:33N 40°50' E 029°15'0 0.1
2015-Feb-24 09:21N 40°50' E 029°15'0 0.0
2015-Feb-24 08:33N 40°50' E 029°15'0 0.0
2015-Feb-24 07:33N 40°50' E 029°15'0 0.0
2015-Feb-24 06:33N 40°50' E 029°15'0 0.0
2015-Feb-24 05:33N 40°50' E 029°15'4 3.6
2015-Feb-24 04:32N 40°48' E 029°11'1010.0
2015-Feb-24 03:31N 40°43' E 028°59'  
2015-Feb-21 09:04N 41°16' E 029°20'4 7.5
2015-Feb-21 08:33N 41°16' E 029°25'8 7.8
2015-Feb-21 07:33N 41°16' E 029°36'1 0.0
2015-Feb-19 18:33N 41°15' E 029°35'9 8.8
2015-Feb-19 17:33N 41°16' E 029°24'24 6.0
2015-Feb-19 13:29N 40°59' E 029°00'6 5.2
2015-Feb-19 12:24N 40°55' E 029°05'6 6.1
2015-Feb-19 11:29N 40°53' E 029°12'0 0.1
2015-Feb-19 10:29N 40°53' E 029°12'0 0.0
2015-Feb-19 08:29N 40°53' E 029°12'0 0.0
2015-Feb-19 07:29N 40°53' E 029°12'0 0.0
2015-Feb-19 06:23N 40°53' E 029°12'0 0.0
2015-Feb-19 05:23N 40°53' E 029°12'0 0.0
2015-Feb-19 04:29N 40°53' E 029°12'0 0.0
2015-Feb-19 03:29N 40°53' E 029°12'0 0.0
2015-Feb-19 02:17N 40°53' E 029°12'0 0.0
2015-Feb-19 01:17N 40°53' E 029°12'0 0.0
2015-Feb-19 00:29N 40°53' E 029°12'0 0.0
2015-Feb-18 23:23N 40°53' E 029°12'0 0.0
2015-Feb-18 22:23N 40°53' E 029°12'0 0.0
2015-Feb-18 21:29N 40°53' E 029°12'0 0.0
2015-Feb-18 20:29N 40°53' E 029°12'0 0.0
2015-Feb-18 19:23N 40°53' E 029°12'0 0.0
2015-Feb-18 18:29N 40°53' E 029°12'0 0.0
2015-Feb-18 17:29N 40°53' E 029°12'0 0.0
2015-Feb-18 16:29N 40°53' E 029°12'0 0.0
2015-Feb-18 15:29N 40°53' E 029°12'0 0.0
2015-Feb-18 14:29N 40°53' E 029°12'0 0.0
2015-Feb-18 13:29N 40°53' E 029°12'0 0.0
2015-Feb-18 12:23N 40°53' E 029°12'0 0.0
2015-Feb-18 11:17N 40°53' E 029°12'11 0.5
2015-Feb-17 12:18N 40°45' E 029°22'  
Track history (hours):
 
Tides and Currents Weather Stations Pressure Air Temp Water Temp Dewpoint Dewpoint Depression Visibility Wind Speed Wind Dir Waves Ship Positions

Ilyas Araz

Last reported at 2015-Feb-26 16:24 UTC. Time now 2015-Mar-05 04:07 UTC.
Position N 40°51' E 029°17'.

Length 64 m; draft 5.4 m.

Type: Cargo ship. MMSI: 271002108.

Date/timePositionNaut miles runAvg speedWind from/ knotsBaromVisibWave heightAir tempDewpointWater temp
2015-Feb-26 16:24N 40°51' E 029°17'0 0.0
2015-Feb-26 15:18N 40°51' E 029°17'0 0.0
2015-Feb-26 14:30N 40°51' E 029°17'0 0.0
2015-Feb-26 13:30N 40°51' E 029°17'0 0.0
2015-Feb-26 12:30N 40°51' E 029°17'0 0.0
2015-Feb-26 11:30N 40°51' E 029°17'0 0.0
2015-Feb-26 10:30N 40°51' E 029°17'0 0.0
2015-Feb-26 09:30N 40°51' E 029°17'0 0.0
2015-Feb-26 08:24N 40°51' E 029°17'0 0.0
2015-Feb-26 07:30N 40°51' E 029°17'0 0.0
2015-Feb-26 06:30N 40°51' E 029°17'0 0.0
2015-Feb-26 05:24N 40°51' E 029°17'0 0.0
2015-Feb-26 04:30N 40°51' E 029°17'0 0.0
2015-Feb-26 03:30N 40°51' E 029°17'0 0.0
2015-Feb-26 02:24N 40°51' E 029°17'0 0.0
2015-Feb-26 01:30N 40°51' E 029°17'0 0.0
2015-Feb-26 00:30N 40°51' E 029°17'0 0.0
2015-Feb-25 23:24N 40°51' E 029°17'0 0.0
2015-Feb-25 22:31N 40°51' E 029°17'0 0.0
2015-Feb-25 21:30N 40°51' E 029°17'0 0.0
2015-Feb-25 20:31N 40°51' E 029°17'0 0.0
2015-Feb-25 19:31N 40°51' E 029°17'0 0.0
2015-Feb-25 18:31N 40°51' E 029°17'0 0.0
2015-Feb-25 17:31N 40°51' E 029°17'0 0.0
2015-Feb-25 16:25N 40°51' E 029°17'0 0.0
2015-Feb-25 15:25N 40°51' E 029°17'0 0.0
2015-Feb-25 14:31N 40°51' E 029°17'0 0.0
2015-Feb-25 13:31N 40°51' E 029°17'0 0.0
2015-Feb-25 12:25N 40°51' E 029°17'0 0.0
2015-Feb-25 11:25N 40°51' E 029°17'0 0.0
2015-Feb-25 10:31N 40°51' E 029°17'0 0.0
2015-Feb-25 09:25N 40°51' E 029°17'0 0.0
2015-Feb-25 08:31N 40°51' E 029°17'0 0.0
2015-Feb-25 07:31N 40°51' E 029°17'0 0.0
2015-Feb-25 06:31N 40°51' E 029°17'0 0.0
2015-Feb-25 05:25N 40°51' E 029°17'0 0.0
2015-Feb-25 04:31N 40°51' E 029°17'0 0.0
2015-Feb-25 03:31N 40°51' E 029°17'0 0.0
2015-Feb-25 02:25N 40°51' E 029°17'0 0.0
2015-Feb-25 01:31N 40°51' E 029°17'0 0.0
2015-Feb-25 00:25N 40°51' E 029°17'0 0.0
2015-Feb-24 23:31N 40°51' E 029°17'0 0.0
2015-Feb-24 22:31N 40°51' E 029°17'0 0.0
2015-Feb-24 21:25N 40°51' E 029°17'0 0.0
2015-Feb-24 20:31N 40°51' E 029°17'0 0.0
2015-Feb-24 19:25N 40°51' E 029°17'0 0.0
2015-Feb-24 18:31N 40°51' E 029°17'0 0.0
2015-Feb-24 17:25N 40°51' E 029°17'0 0.0
2015-Feb-24 16:31N 40°51' E 029°17'0 0.0
2015-Feb-24 15:19N 40°51' E 029°17'0 0.0
2015-Feb-24 14:31N 40°51' E 029°17'0 0.0
2015-Feb-24 13:25N 40°51' E 029°17'0 0.2
2015-Feb-24 12:32N 40°51' E 029°17'2 1.7
2015-Feb-24 11:27N 40°50' E 029°15'0 0.0
2015-Feb-24 10:33N 40°50' E 029°15'0 0.1
2015-Feb-24 09:21N 40°50' E 029°15'0 0.0
2015-Feb-24 08:33N 40°50' E 029°15'0 0.0
2015-Feb-24 07:33N 40°50' E 029°15'0 0.0
2015-Feb-24 06:33N 40°50' E 029°15'0 0.0
2015-Feb-24 05:33N 40°50' E 029°15'4 3.6
2015-Feb-24 04:32N 40°48' E 029°11'1010.0
2015-Feb-24 03:31N 40°43' E 028°59'  
2015-Feb-21 09:04N 41°16' E 029°20'4 7.5
2015-Feb-21 08:33N 41°16' E 029°25'8 7.8
2015-Feb-21 07:33N 41°16' E 029°36'1 0.0
2015-Feb-19 18:33N 41°15' E 029°35'9 8.8
2015-Feb-19 17:33N 41°16' E 029°24'24 6.0
2015-Feb-19 13:29N 40°59' E 029°00'6 5.2
2015-Feb-19 12:24N 40°55' E 029°05'6 6.1
2015-Feb-19 11:29N 40°53' E 029°12'0 0.1
2015-Feb-19 10:29N 40°53' E 029°12'0 0.0
2015-Feb-19 08:29N 40°53' E 029°12'0 0.0
2015-Feb-19 07:29N 40°53' E 029°12'0 0.0
2015-Feb-19 06:23N 40°53' E 029°12'0 0.0
2015-Feb-19 05:23N 40°53' E 029°12'0 0.0
2015-Feb-19 04:29N 40°53' E 029°12'0 0.0
2015-Feb-19 03:29N 40°53' E 029°12'0 0.0
2015-Feb-19 02:17N 40°53' E 029°12'0 0.0
2015-Feb-19 01:17N 40°53' E 029°12'0 0.0
2015-Feb-19 00:29N 40°53' E 029°12'0 0.0
2015-Feb-18 23:23N 40°53' E 029°12'0 0.0
2015-Feb-18 22:23N 40°53' E 029°12'0 0.0
2015-Feb-18 21:29N 40°53' E 029°12'0 0.0
2015-Feb-18 20:29N 40°53' E 029°12'0 0.0
2015-Feb-18 19:23N 40°53' E 029°12'0 0.0
2015-Feb-18 18:29N 40°53' E 029°12'0 0.0
2015-Feb-18 17:29N 40°53' E 029°12'0 0.0
2015-Feb-18 16:29N 40°53' E 029°12'0 0.0
2015-Feb-18 15:29N 40°53' E 029°12'0 0.0
2015-Feb-18 14:29N 40°53' E 029°12'0 0.0
2015-Feb-18 13:29N 40°53' E 029°12'0 0.0
2015-Feb-18 12:23N 40°53' E 029°12'0 0.0
2015-Feb-18 11:17N 40°53' E 029°12'11 0.5
2015-Feb-17 12:18N 40°45' E 029°22'  

Dump ship's entire track history